This is the latest recevied weather packets stored in our database for station/object WA7CUG. If no packets are shown the sender has not sent any weather packets the latest 10 day(s).
| Time | Temp. | Humidity | Pressure | Rain* | Wind** | Luminosity | Snow |
|---|---|---|---|---|---|---|---|
| 1778319463 | 12.78° C | 48% | 1019.3 hPa | 0 mm | - | 0 W/m² | - |
| 1778319160 | 13.33° C | 47% | 1019.1 hPa | 0 mm | - | 0 W/m² | - |
| 1778318859 | 12.78° C | 49% | 1018.9 hPa | 0 mm | - | 0 W/m² | - |
| 1778318556 | 12.22° C | 53% | 1018.8 hPa | 0 mm | - | 0 W/m² | - |
| 1778318254 | 13.89° C | 46% | 1018.9 hPa | 0 mm | - | 0 W/m² | - |
| 1778317950 | 13.33° C | 43% | 1018.9 hPa | 0 mm | - | 0 W/m² | - |
| 1778317648 | 13.89° C | 48% | 1019 hPa | 0 mm | - | 0 W/m² | - |
| 1778317344 | 14.44° C | 45% | 1018.9 hPa | 0 mm | - | 0 W/m² | - |
| 1778317042 | 15° C | 41% | 1019 hPa | 0 mm | - | 0 W/m² | - |
| 1778316739 | 15° C | 41% | 1019 hPa | 0 mm | - | 0 W/m² | - |
| 1778316436 | 15.56° C | 40% | 1019 hPa | 0 mm | - | 0 W/m² | - |
| 1778316132 | 15.56° C | 40% | 1019 hPa | 0 mm | - | 0 W/m² | - |
| 1778315831 | 15° C | 41% | 1018.9 hPa | 0 mm | - | 0 W/m² | - |
| 1778315527 | 15° C | 40% | 1018.9 hPa | 0 mm | - | 0 W/m² | - |
| 1778315224 | 14.44° C | 43% | 1018.9 hPa | 0 mm | - | 0 W/m² | - |
| 1778314921 | 14.44° C | 43% | 1018.8 hPa | 0 mm | - | 0 W/m² | - |
| 1778314617 | 13.33° C | 45% | 1018.5 hPa | 0 mm | - | 0 W/m² | - |
| 1778314315 | 13.89° C | 46% | 1018.5 hPa | 0 mm | - | 0 W/m² | - |
| 1778314013 | 14.44° C | 43% | 1018.6 hPa | 0 mm | - | 0 W/m² | - |
| 1778313710 | 15.56° C | 40% | 1018.8 hPa | 0 mm | - | 0 W/m² | - |
| 1778313408 | 15.56° C | 39% | 1018.4 hPa | 0 mm | - | 0 W/m² | - |
| 1778313106 | 15.56° C | 38% | 1018.3 hPa | 0 mm | - | 0 W/m² | - |
| 1778312803 | 15.56° C | 39% | 1018.3 hPa | 0 mm | - | 0 W/m² | - |
| 1778312499 | 15.56° C | 39% | 1018.2 hPa | 0 mm | - | 0 W/m² | - |
| 1778312196 | 15.56° C | 39% | 1018.3 hPa | 0 mm | - | 0 W/m² | - |
* Rain latest hour (hover to see other rain measurements)
** Current wind speed in m/s (hover to see current wind gust speed)